Time;durP1;ratioP1;P1;durP2;ratioP2;P2;SDS_P1;SDS_P2;PMS_P1;PMS_P2;Temp;Humidity;BMP_temperature;BMP_pressure;BME280_temperature;BME280_humidity;BME280_pressure;Samples;Min_cycle;Max_cycle;Signal;HPM_P1;HPM_P2
2024/01/10 00:00:45;;;;;;;11.27;6.17;;;-4.30;1.00;;;;;;5087395;28;20219;-59
2024/01/10 00:03:14;;;;;;;8.53;6.07;;;-4.30;1.00;;;;;;5078660;28;20292;-60
2024/01/10 00:05:42;;;;;;;10.57;6.30;;;-4.30;1.00;;;;;;5080257;28;20589;-61
2024/01/10 00:08:10;;;;;;;9.33;6.37;;;-4.40;1.00;;;;;;5080422;28;20202;-60
2024/01/10 00:10:39;;;;;;;12.70;6.43;;;-4.40;1.00;;;;;;5080656;28;20264;-60
2024/01/10 00:13:07;;;;;;;9.97;6.03;;;-4.40;1.00;;;;;;5082553;28;20319;-59
2024/01/10 00:15:36;;;;;;;9.23;5.97;;;-4.50;1.00;;;;;;5084116;28;20284;-60
2024/01/10 00:18:05;;;;;;;12.70;6.73;;;-4.50;1.00;;;;;;5079880;28;20279;-60
2024/01/10 00:20:34;;;;;;;9.87;6.13;;;-4.60;1.00;;;;;;5084883;27;20216;-60
2024/01/10 00:23:02;;;;;;;13.90;6.90;;;-4.60;1.00;;;;;;5086626;28;20196;-60
2024/01/10 00:25:30;;;;;;;11.37;6.67;;;-4.70;1.00;;;;;;5084396;28;20199;-60
2024/01/10 00:27:59;;;;;;;9.70;6.60;;;-4.70;1.00;;;;;;5086811;28;20238;-60
2024/01/10 00:30:27;;;;;;;12.67;6.20;;;-4.70;1.00;;;;;;5089066;28;20341;-61
2024/01/10 00:32:56;;;;;;;10.27;6.40;;;-4.70;1.00;;;;;;5091985;27;20211;-60
2024/01/10 00:35:25;;;;;;;11.03;6.30;;;-4.70;1.00;;;;;;5088041;27;20230;-61
2024/01/10 00:37:54;;;;;;;13.37;7.27;;;-4.70;1.00;;;;;;5089930;28;20211;-60
2024/01/10 00:40:22;;;;;;;10.13;6.33;;;-4.70;1.00;;;;;;5082731;28;20223;-59
2024/01/10 00:42:50;;;;;;;9.13;6.07;;;-4.70;1.00;;;;;;5089439;28;20215;-59
2024/01/10 00:45:19;;;;;;;10.53;6.63;;;-4.80;1.00;;;;;;5090371;28;20269;-61
2024/01/10 00:47:47;;;;;;;12.57;6.00;;;-4.80;1.00;;;;;;5084440;28;20863;-60
2024/01/10 00:50:16;;;;;;;10.47;6.10;;;-4.80;1.00;;;;;;5086089;28;20650;-60
2024/01/10 00:52:47;;;;;;;10.47;6.73;;;-4.80;1.00;;;;;;5083973;28;20206;-60
2024/01/10 00:55:15;;;;;;;9.93;6.00;;;-4.80;1.00;;;;;;5088498;28;20219;-60
2024/01/10 00:57:43;;;;;;;11.00;6.30;;;-4.80;1.00;;;;;;5088250;28;20225;-60
2024/01/10 01:00:13;;;;;;;13.87;6.40;;;-4.80;1.00;;;;;;5087330;28;20222;-60
2024/01/10 01:02:42;;;;;;;11.47;6.90;;;-4.80;1.00;;;;;;5087788;28;20219;-60
2024/01/10 01:05:10;;;;;;;11.43;6.23;;;-4.80;1.00;;;;;;5087144;28;20183;-60
2024/01/10 01:07:38;;;;;;;11.20;6.53;;;-4.80;1.00;;;;;;5084035;28;20318;-59
2024/01/10 01:10:09;;;;;;;10.90;6.47;;;-4.80;1.00;;;;;;5084867;28;20211;-60
2024/01/10 01:12:39;;;;;;;13.23;6.23;;;-4.90;1.00;;;;;;5084111;28;20219;-60
2024/01/10 01:15:08;;;;;;;12.37;6.20;;;-4.90;1.00;;;;;;5087435;28;20231;-60
2024/01/10 01:17:37;;;;;;;8.53;6.00;;;-4.90;1.00;;;;;;5087251;28;20562;-60
2024/01/10 01:20:06;;;;;;;11.47;6.60;;;-4.90;1.00;;;;;;5084870;28;20192;-60
2024/01/10 01:22:35;;;;;;;11.03;6.17;;;-4.90;1.00;;;;;;5083404;28;20203;-61
2024/01/10 01:25:04;;;;;;;9.47;6.13;;;-4.90;1.00;;;;;;5082837;28;20632;-61
2024/01/10 01:27:34;;;;;;;11.37;6.50;;;-5.00;1.00;;;;;;5087343;28;20251;-60
2024/01/10 01:30:02;;;;;;;14.20;6.30;;;-5.00;1.00;;;;;;5086782;28;20220;-60
2024/01/10 01:32:32;;;;;;;13.53;6.60;;;-5.00;1.00;;;;;;5086355;28;20314;-61
2024/01/10 01:35:00;;;;;;;12.67;6.80;;;-5.00;1.00;;;;;;5087077;28;20184;-60
2024/01/10 01:37:28;;;;;;;10.37;6.70;;;-5.10;1.00;;;;;;5082726;28;20678;-60
2024/01/10 01:39:56;;;;;;;11.87;6.70;;;-5.10;1.00;;;;;;5089547;28;20215;-60
2024/01/10 01:42:25;;;;;;;14.03;6.70;;;-5.20;1.00;;;;;;5084806;28;20224;-60
2024/01/10 01:44:54;;;;;;;19.13;7.13;;;-5.20;1.00;;;;;;5085627;28;20223;-60
2024/01/10 01:47:23;;;;;;;10.80;6.60;;;-5.30;1.00;;;;;;5085001;28;20220;-60
2024/01/10 01:49:51;;;;;;;12.37;7.30;;;-5.30;1.00;;;;;;5085403;28;20282;-60
2024/01/10 01:52:20;;;;;;;14.93;7.20;;;-5.40;1.00;;;;;;5084599;28;20219;-60
2024/01/10 01:54:49;;;;;;;15.17;7.27;;;-5.40;1.00;;;;;;5082180;28;20307;-60
2024/01/10 01:57:17;;;;;;;13.40;6.63;;;-5.40;99.90;;;;;;5087041;28;20211;-59
2024/01/10 01:59:45;;;;;;;14.30;7.03;;;-5.50;99.90;;;;;;5086216;28;20567;-60
2024/01/10 02:02:17;;;;;;;12.33;7.00;;;-5.60;99.90;;;;;;5086824;28;20191;-60
2024/01/10 02:04:47;;;;;;;10.53;6.47;;;-5.60;99.90;;;;;;5079302;28;20250;-59
2024/01/10 02:07:15;;;;;;;13.07;7.20;;;-5.70;99.90;;;;;;5085073;28;20305;-60
2024/01/10 02:09:44;;;;;;;10.83;6.87;;;-5.70;99.90;;;;;;5086923;28;20215;-60
2024/01/10 02:12:12;;;;;;;13.57;7.17;;;-5.70;99.90;;;;;;5080806;28;20318;-60
2024/01/10 02:14:40;;;;;;;14.37;7.47;;;-5.70;99.90;;;;;;5084241;28;20598;-60
2024/01/10 02:17:09;;;;;;;15.13;7.20;;;-5.70;99.90;;;;;;5087946;28;20562;-60
2024/01/10 02:19:38;;;;;;;17.07;7.10;;;-5.70;99.90;;;;;;5084740;28;20208;-59
2024/01/10 02:22:07;;;;;;;15.30;7.30;;;-5.70;99.90;;;;;;5084652;27;20319;-60
2024/01/10 02:24:35;;;;;;;13.30;7.40;;;-5.70;99.90;;;;;;5080333;28;20230;-60
2024/01/10 02:27:05;;;;;;;17.00;7.03;;;-5.70;99.90;;;;;;5082811;28;20237;-61
2024/01/10 02:29:34;;;;;;;12.20;7.00;;;-5.70;99.90;;;;;;5081703;28;20238;-60
2024/01/10 02:32:03;;;;;;;12.67;7.07;;;-5.70;99.90;;;;;;5081179;28;20341;-60
2024/01/10 02:34:31;;;;;;;12.83;6.97;;;-5.70;99.90;;;;;;5085285;28;20196;-61
2024/01/10 02:37:00;;;;;;;15.30;7.23;;;-5.70;99.90;;;;;;5082721;28;20314;-60
2024/01/10 02:39:28;;;;;;;12.40;6.50;;;-5.70;99.90;;;;;;5087159;28;20613;-60
2024/01/10 02:41:56;;;;;;;11.47;7.03;;;-5.70;99.90;;;;;;5081897;28;20234;-61
2024/01/10 02:44:29;;;;;;;12.87;7.57;;;-5.60;99.90;;;;;;5081946;28;20211;-59
2024/01/10 02:46:57;;;;;;;12.93;6.90;;;-5.60;99.90;;;;;;5084034;28;20218;-60
2024/01/10 02:49:25;;;;;;;13.83;7.13;;;-5.60;99.90;;;;;;5083473;28;20264;-60
2024/01/10 02:51:54;;;;;;;11.93;7.13;;;-5.70;99.90;;;;;;5083780;28;20215;-59
2024/01/10 02:54:22;;;;;;;13.20;7.13;;;-5.70;99.90;;;;;;5086063;28;20223;-60
2024/01/10 02:56:50;;;;;;;13.87;7.30;;;-5.70;99.90;;;;;;5083212;28;20698;-60
2024/01/10 02:59:18;;;;;;;12.97;7.67;;;-5.70;99.90;;;;;;5082194;28;20601;-60
2024/01/10 03:01:48;;;;;;;13.07;7.03;;;-5.60;99.90;;;;;;5084804;28;20224;-60
2024/01/10 03:04:16;;;;;;;16.20;7.90;;;-5.70;99.90;;;;;;5081878;28;20215;-60
2024/01/10 03:06:45;;;;;;;14.03;8.10;;;-5.70;99.90;;;;;;5083237;28;20231;-60
2024/01/10 03:09:13;;;;;;;15.90;8.37;;;-5.70;99.90;;;;;;5083679;28;20215;-59
2024/01/10 03:11:41;;;;;;;14.53;7.47;;;-5.80;99.90;;;;;;5086669;28;20219;-59
2024/01/10 03:14:11;;;;;;;14.60;7.53;;;-5.80;99.90;;;;;;5083312;28;20195;-60
2024/01/10 03:16:40;;;;;;;10.90;6.83;;;-5.90;99.90;;;;;;5087234;28;20195;-60
2024/01/10 03:19:09;;;;;;;14.27;7.73;;;-5.80;99.90;;;;;;5080371;28;20215;-59
2024/01/10 03:21:38;;;;;;;13.33;7.20;;;-5.80;99.90;;;;;;5081187;28;20677;-60
2024/01/10 03:24:07;;;;;;;13.27;7.40;;;-5.80;99.90;;;;;;5085735;28;21609;-60
2024/01/10 03:26:36;;;;;;;13.07;7.17;;;-5.80;99.90;;;;;;5083882;28;20422;-60
2024/01/10 03:29:04;;;;;;;15.60;7.43;;;-5.80;99.90;;;;;;5082067;28;20215;-60
2024/01/10 03:31:33;;;;;;;12.23;6.77;;;-5.80;99.90;;;;;;5083563;28;20794;-61
2024/01/10 03:34:01;;;;;;;11.80;7.07;;;-5.80;99.90;;;;;;5080149;28;20238;-60
2024/01/10 03:36:31;;;;;;;11.53;6.30;;;-5.80;99.90;;;;;;5082819;28;20232;-60
2024/01/10 03:38:59;;;;;;;13.93;8.37;;;-5.80;99.90;;;;;;5084842;28;20227;-60
2024/01/10 03:41:27;;;;;;;12.60;7.70;;;-5.80;99.90;;;;;;5080397;28;20222;-60
2024/01/10 03:43:56;;;;;;;18.03;7.87;;;-5.80;99.90;;;;;;5084111;28;20192;-60
2024/01/10 03:46:24;;;;;;;11.60;6.77;;;-5.80;99.90;;;;;;5084195;28;20231;-60
2024/01/10 03:48:53;;;;;;;12.60;7.23;;;-5.80;99.90;;;;;;5082583;28;20222;-60
2024/01/10 03:51:21;;;;;;;11.40;7.00;;;-5.80;99.90;;;;;;5079271;28;20224;-60
2024/01/10 03:53:54;;;;;;;13.00;6.60;;;-5.70;99.90;;;;;;5084089;28;20229;-60
2024/01/10 03:56:23;;;;;;;9.57;6.30;;;-5.60;99.90;;;;;;5081159;28;20223;-60
2024/01/10 03:58:51;;;;;;;14.00;6.67;;;-5.60;99.90;;;;;;5082287;28;20199;-60
2024/01/10 04:01:23;;;;;;;18.30;6.93;;;-5.50;99.90;;;;;;5081874;28;20293;-60
2024/01/10 04:03:52;;;;;;;9.43;6.23;;;-5.50;99.90;;;;;;5079594;28;20230;-61
2024/01/10 04:06:20;;;;;;;12.33;6.40;;;-5.40;99.90;;;;;;5084853;27;20978;-61
2024/01/10 04:08:48;;;;;;;11.77;7.07;;;-5.40;99.90;;;;;;5081190;28;20228;-60
2024/01/10 04:11:18;;;;;;;8.97;6.03;;;-5.40;99.90;;;;;;5082083;28;20203;-61
2024/01/10 04:13:46;;;;;;;23.10;6.67;;;-5.40;99.90;;;;;;5080149;28;20207;-60
2024/01/10 04:16:14;;;;;;;10.53;6.27;;;-5.30;99.90;;;;;;5081894;28;20215;-61
2024/01/10 04:18:42;;;;;;;13.67;6.87;;;-5.40;99.90;;;;;;5079387;28;20594;-60
2024/01/10 04:21:11;;;;;;;11.43;6.57;;;-5.30;99.90;;;;;;5082391;28;20390;-61
2024/01/10 04:23:40;;;;;;;11.57;6.43;;;-5.40;99.90;;;;;;5082308;28;20268;-61
2024/01/10 04:26:08;;;;;;;12.13;7.00;;;-5.30;99.90;;;;;;5084922;28;20180;-60
2024/01/10 04:28:39;;;;;;;8.93;6.20;;;-5.30;99.90;;;;;;5083315;28;20661;-60
2024/01/10 04:31:08;;;;;;;12.70;6.57;;;-5.30;99.90;;;;;;5082203;28;20281;-60
2024/01/10 04:33:37;;;;;;;16.43;6.40;;;-5.30;99.90;;;;;;5080688;28;20754;-60
2024/01/10 04:36:05;;;;;;;12.37;6.07;;;-5.30;99.90;;;;;;5082747;28;20243;-61
2024/01/10 04:38:34;;;;;;;12.53;6.83;;;-5.30;99.90;;;;;;5080646;28;20215;-61
2024/01/10 04:41:02;;;;;;;9.83;6.13;;;-5.30;99.90;;;;;;5082070;28;20216;-60
2024/01/10 04:43:30;;;;;;;13.27;6.50;;;-5.30;99.90;;;;;;5081429;28;20574;-61
2024/01/10 04:46:00;;;;;;;11.00;6.50;;;-5.40;99.90;;;;;;5080910;28;20709;-60
2024/01/10 04:48:28;;;;;;;12.73;6.77;;;-5.40;99.90;;;;;;5083119;28;20222;-60
2024/01/10 04:50:56;;;;;;;12.00;6.87;;;-5.40;99.90;;;;;;5081868;28;20222;-61
2024/01/10 04:53:24;;;;;;;13.90;6.73;;;-5.30;99.90;;;;;;5080884;28;20215;-60
2024/01/10 04:55:53;;;;;;;14.33;6.27;;;-5.40;99.90;;;;;;5082656;28;20194;-60
2024/01/10 04:58:21;;;;;;;12.13;6.33;;;-5.40;99.90;;;;;;5081448;28;20215;-61
2024/01/10 05:00:49;;;;;;;11.60;6.37;;;-5.40;99.90;;;;;;5081862;28;20245;-61
2024/01/10 05:03:19;;;;;;;10.47;6.47;;;-5.50;99.90;;;;;;5081992;28;20219;-61
2024/01/10 05:05:48;;;;;;;12.60;6.27;;;-5.50;99.90;;;;;;5078066;28;20218;-61
2024/01/10 05:08:20;;;;;;;11.83;6.27;;;-5.40;99.90;;;;;;5081245;28;20191;-60
2024/01/10 05:10:48;;;;;;;13.93;6.67;;;-5.50;99.90;;;;;;5084104;28;20195;-60
2024/01/10 05:13:17;;;;;;;11.33;6.37;;;-5.50;99.90;;;;;;5081205;28;20261;-61
2024/01/10 05:15:45;;;;;;;12.03;6.50;;;-5.50;99.90;;;;;;5083091;28;20243;-60
2024/01/10 05:18:13;;;;;;;14.20;6.90;;;-5.50;99.90;;;;;;5086077;28;20219;-61
2024/01/10 05:20:43;;;;;;;12.97;6.23;;;-5.50;99.90;;;;;;5086595;28;20219;-60
2024/01/10 05:23:11;;;;;;;10.77;6.70;;;-5.50;99.90;;;;;;5085801;28;20219;-61
2024/01/10 05:25:39;;;;;;;13.00;6.60;;;-5.50;99.90;;;;;;5087905;28;20199;-60
2024/01/10 05:28:08;;;;;;;16.97;6.70;;;-5.50;99.90;;;;;;5083055;28;20230;-60
2024/01/10 05:30:36;;;;;;;10.90;6.73;;;-5.50;99.90;;;;;;5080459;28;20220;-61
2024/01/10 05:33:05;;;;;;;13.33;6.80;;;-5.50;99.90;;;;;;5085513;27;20234;-61
2024/01/10 05:35:35;;;;;;;21.33;9.87;;;-5.50;99.90;;;;;;5082561;28;20221;-61
2024/01/10 05:38:05;;;;;;;20.60;8.40;;;-5.50;99.90;;;;;;5082131;28;20199;-60
2024/01/10 05:40:33;;;;;;;13.23;7.23;;;-5.50;99.90;;;;;;5081708;28;20220;-61
2024/01/10 05:43:02;;;;;;;11.53;6.60;;;-5.50;99.90;;;;;;5086734;28;20208;-61
2024/01/10 05:45:30;;;;;;;12.37;6.80;;;-5.60;99.90;;;;;;5088207;28;20234;-60
2024/01/10 05:47:59;;;;;;;10.87;7.00;;;-5.60;99.90;;;;;;5085777;28;20227;-61
2024/01/10 05:50:27;;;;;;;12.43;5.87;;;-5.60;99.90;;;;;;5079740;28;20628;-60
2024/01/10 05:52:56;;;;;;;13.57;6.77;;;-5.60;99.90;;;;;;5087899;28;20241;-60
2024/01/10 05:55:25;;;;;;;12.73;7.57;;;-5.60;99.90;;;;;;5085462;28;20215;-61
2024/01/10 05:57:53;;;;;;;10.03;6.17;;;-5.60;99.90;;;;;;5080589;28;20219;-60
2024/01/10 06:00:22;;;;;;;11.10;6.77;;;-5.60;99.90;;;;;;5088659;28;20226;-60
2024/01/10 06:02:50;;;;;;;11.13;6.23;;;-5.60;99.90;;;;;;5085512;28;20220;-61
2024/01/10 06:05:18;;;;;;;11.37;6.50;;;-5.60;99.90;;;;;;5083147;28;20235;-60
2024/01/10 06:07:47;;;;;;;12.57;6.67;;;-5.60;99.90;;;;;;5082064;28;20199;-60
2024/01/10 06:10:15;;;;;;;10.90;6.20;;;-5.60;99.90;;;;;;5081470;28;20288;-61
2024/01/10 06:12:45;;;;;;;11.97;6.13;;;-5.60;99.90;;;;;;5081417;28;20223;-61
2024/01/10 06:15:13;;;;;;;13.17;6.37;;;-5.60;99.90;;;;;;5087398;28;20234;-60
2024/01/10 06:17:41;;;;;;;10.93;6.20;;;-5.60;99.90;;;;;;5082896;28;20563;-61
2024/01/10 06:20:11;;;;;;;13.07;6.27;;;-5.60;99.90;;;;;;5084609;28;20593;-60
2024/01/10 06:22:39;;;;;;;12.87;6.03;;;-5.60;99.90;;;;;;5082646;28;20282;-60
2024/01/10 06:25:08;;;;;;;9.63;6.50;;;-5.60;99.90;;;;;;5086018;28;20227;-62
2024/01/10 06:27:36;;;;;;;11.87;6.43;;;-5.60;99.90;;;;;;5085997;28;20666;-60
2024/01/10 06:30:09;;;;;;;12.20;5.83;;;-5.60;99.90;;;;;;5085202;28;20223;-61
2024/01/10 06:32:37;;;;;;;19.07;6.57;;;-5.60;99.90;;;;;;5088118;28;20273;-60
2024/01/10 06:35:09;;;;;;;12.27;6.47;;;-5.60;99.90;;;;;;5078521;28;20674;-60
2024/01/10 06:37:39;;;;;;;12.17;6.43;;;-5.60;99.90;;;;;;5081096;28;20247;-60
2024/01/10 06:40:08;;;;;;;8.60;5.87;;;-5.60;99.90;;;;;;5084372;28;20300;-60
2024/01/10 06:42:37;;;;;;;12.20;6.80;;;-5.60;99.90;;;;;;5084401;28;20728;-60
2024/01/10 06:45:08;;;;;;;14.77;6.57;;;-5.60;99.90;;;;;;5081702;28;20230;-61
2024/01/10 06:47:37;;;;;;;9.20;6.03;;;-5.60;99.90;;;;;;5085760;28;20212;-61
2024/01/10 06:50:07;;;;;;;8.77;6.47;;;-5.60;99.90;;;;;;5084516;28;20966;-60
2024/01/10 06:52:35;;;;;;;9.93;6.13;;;-5.60;99.90;;;;;;5081040;28;20241;-60
2024/01/10 06:55:04;;;;;;;12.30;6.50;;;-5.60;99.90;;;;;;5076649;28;20212;-60
2024/01/10 06:57:33;;;;;;;9.93;6.17;;;-5.60;99.90;;;;;;5081457;28;20218;-60
2024/01/10 07:00:03;;;;;;;11.17;6.33;;;-5.60;99.90;;;;;;5078976;28;20301;-60
2024/01/10 07:02:35;;;;;;;12.17;6.40;;;-5.70;99.90;;;;;;5081810;28;20227;-60
2024/01/10 07:05:07;;;;;;;11.80;6.20;;;-5.60;99.90;;;;;;5084947;28;20191;-60
2024/01/10 07:07:36;;;;;;;9.33;6.13;;;-5.60;99.90;;;;;;5085577;28;20278;-60
2024/01/10 07:10:05;;;;;;;8.97;5.90;;;-5.60;99.90;;;;;;5083605;28;20215;-60
2024/01/10 07:12:34;;;;;;;13.30;6.00;;;-5.60;99.90;;;;;;5079369;28;20682;-60
2024/01/10 07:15:04;;;;;;;11.33;6.07;;;-5.60;99.90;;;;;;5083080;28;20701;-59
2024/01/10 07:17:33;;;;;;;8.70;5.77;;;-5.60;99.90;;;;;;5081934;28;20318;-60
2024/01/10 07:20:03;;;;;;;12.90;6.43;;;-5.60;99.90;;;;;;5084110;28;20184;-60
2024/01/10 07:22:32;;;;;;;12.93;6.73;;;-5.60;99.90;;;;;;5084134;28;20207;-60
2024/01/10 07:25:00;;;;;;;10.70;6.33;;;-5.60;99.90;;;;;;5078487;28;20702;-60
2024/01/10 07:27:28;;;;;;;11.37;7.10;;;-5.60;99.90;;;;;;5083897;28;20221;-60
2024/01/10 07:29:57;;;;;;;10.63;6.60;;;-5.60;99.90;;;;;;5082261;28;20246;-60
2024/01/10 07:32:26;;;;;;;13.57;6.47;;;-5.60;99.90;;;;;;5084782;28;21007;-60
2024/01/10 07:34:57;;;;;;;12.33;6.13;;;-5.60;99.90;;;;;;5080377;28;20263;-60
2024/01/10 07:37:25;;;;;;;10.57;6.63;;;-5.60;99.90;;;;;;4962413;28;20227;-60
2024/01/10 07:39:57;;;;;;;13.60;6.87;;;-5.60;99.90;;;;;;5056650;28;20214;-61
2024/01/10 07:42:25;;;;;;;12.83;6.73;;;-5.70;99.90;;;;;;5080762;28;20228;-60
2024/01/10 07:44:54;;;;;;;14.33;6.80;;;-5.70;99.90;;;;;;5083404;28;20694;-60
2024/01/10 07:47:22;;;;;;;11.70;6.87;;;-5.70;99.90;;;;;;5082947;28;20245;-60
2024/01/10 07:49:51;;;;;;;14.33;6.93;;;-5.70;99.90;;;;;;5082287;28;20188;-60
2024/01/10 07:52:21;;;;;;;11.83;6.63;;;-5.70;99.90;;;;;;5082222;28;20224;-61
2024/01/10 07:54:52;;;;;;;17.60;7.23;;;-5.70;99.90;;;;;;5082957;28;20226;-59
2024/01/10 07:57:22;;;;;;;16.23;7.30;;;-5.70;99.90;;;;;;5081862;28;20802;-60
2024/01/10 07:59:51;;;;;;;12.17;7.10;;;-5.70;99.90;;;;;;5081007;28;20304;-60
2024/01/10 08:02:19;;;;;;;14.17;6.73;;;-5.70;99.90;;;;;;5082112;28;20235;-60
2024/01/10 08:04:47;;;;;;;20.17;7.60;;;-5.60;99.90;;;;;;5095577;28;20204;-60
2024/01/10 08:07:16;;;;;;;16.53;7.33;;;-5.60;99.90;;;;;;5079308;28;20298;-60
2024/01/10 08:09:45;;;;;;;15.57;7.77;;;-5.60;99.90;;;;;;5078825;28;20226;-60
2024/01/10 08:12:14;;;;;;;22.93;9.30;;;-5.60;99.90;;;;;;5080043;28;20687;-60
2024/01/10 08:14:45;;;;;;;28.10;10.83;;;-5.60;99.90;;;;;;5078398;28;20216;-60
2024/01/10 08:17:14;;;;;;;22.40;7.87;;;-5.50;99.90;;;;;;5079674;28;20541;-60
2024/01/10 08:19:42;;;;;;;13.90;7.10;;;-5.60;99.90;;;;;;5081946;28;20187;-60
2024/01/10 08:22:12;;;;;;;13.00;7.23;;;-5.50;99.90;;;;;;5079420;28;20222;-60
2024/01/10 08:24:40;;;;;;;9.27;6.50;;;-5.50;99.90;;;;;;5080370;28;20230;-60
2024/01/10 08:27:10;;;;;;;12.77;6.80;;;-5.50;99.90;;;;;;5080901;28;20226;-60
2024/01/10 08:29:38;;;;;;;10.73;7.10;;;-5.50;99.90;;;;;;5078067;28;20298;-60
2024/01/10 08:32:07;;;;;;;11.60;6.80;;;-5.40;99.90;;;;;;5082317;28;21928;-59
2024/01/10 08:34:35;;;;;;;15.17;7.10;;;-5.40;99.90;;;;;;5084281;28;20196;-60
2024/01/10 08:37:04;;;;;;;12.10;7.43;;;-5.30;99.90;;;;;;5079334;28;20268;-60
2024/01/10 08:39:33;;;;;;;16.47;7.37;;;-5.30;99.90;;;;;;5082688;28;20222;-60
2024/01/10 08:42:01;;;;;;;14.57;7.07;;;-5.30;99.90;;;;;;5080185;28;20238;-60
2024/01/10 08:44:30;;;;;;;13.03;7.03;;;-5.20;99.90;;;;;;5087578;28;21184;-60
2024/01/10 08:46:59;;;;;;;9.30;6.50;;;-5.20;99.90;;;;;;5085643;28;20217;-59
2024/01/10 08:49:27;;;;;;;12.53;7.10;;;-5.10;99.90;;;;;;5087135;28;20249;-59
2024/01/10 08:51:56;;;;;;;14.20;7.33;;;-5.10;99.90;;;;;;5086291;28;20725;-60
2024/01/10 08:54:25;;;;;;;14.87;7.47;;;-5.10;99.90;;;;;;5084698;28;20223;-59
2024/01/10 08:56:53;;;;;;;14.73;7.37;;;-5.00;99.90;;;;;;5087493;28;20265;-59
2024/01/10 08:59:21;;;;;;;12.77;7.10;;;-5.00;99.90;;;;;;5086435;28;20231;-60
2024/01/10 09:01:52;;;;;;;14.87;7.63;;;-5.00;99.90;;;;;;5081822;28;20240;-59
2024/01/10 09:04:20;;;;;;;14.60;7.50;;;-4.90;99.90;;;;;;5084660;28;20555;-59
2024/01/10 09:06:48;;;;;;;12.93;7.37;;;-4.90;99.90;;;;;;5086407;28;20318;-59
2024/01/10 09:09:20;;;;;;;19.33;6.90;;;-4.90;99.90;;;;;;5082289;28;20231;-60
2024/01/10 09:11:49;;;;;;;17.07;7.80;;;-4.90;99.90;;;;;;5084782;28;20614;-60
2024/01/10 09:14:19;;;;;;;11.57;6.80;;;-4.90;99.90;;;;;;5088807;28;20272;-60
2024/01/10 09:16:47;;;;;;;16.13;7.27;;;-4.80;99.90;;;;;;5087958;28;20207;-60
2024/01/10 09:19:17;;;;;;;15.77;7.57;;;-4.70;99.90;;;;;;5086295;28;20231;-60
2024/01/10 09:21:46;;;;;;;11.37;6.63;;;-4.60;99.90;;;;;;5086706;28;20219;-60
2024/01/10 09:24:14;;;;;;;12.63;6.80;;;-4.50;99.90;;;;;;5086103;28;21524;-60
2024/01/10 09:26:55;;;;;;;16.37;7.30;;;-4.30;99.90;;;;;;5086561;28;20643;-60
2024/01/10 09:29:25;;;;;;;12.40;6.90;;;-4.30;99.90;;;;;;5084158;27;20330;-60
2024/01/10 09:31:54;;;;;;;11.80;7.07;;;-4.10;99.90;;;;;;5088057;28;20210;-60
2024/01/10 09:34:24;;;;;;;14.80;8.13;;;-4.00;99.90;;;;;;5082553;28;20224;-60
2024/01/10 09:36:53;;;;;;;13.40;7.10;;;-3.90;99.90;;;;;;5088594;28;20247;-59
2024/01/10 09:39:21;;;;;;;15.30;7.60;;;-3.80;99.90;;;;;;5082104;28;20215;-59
2024/01/10 09:41:50;;;;;;;13.30;7.87;;;-3.60;99.90;;;;;;5079687;27;20227;-60
2024/01/10 09:44:21;;;;;;;13.87;7.27;;;-3.50;99.90;;;;;;5081651;28;20219;-60
2024/01/10 09:46:53;;;;;;;12.03;7.00;;;-3.30;99.90;;;;;;5086588;28;20194;-60
2024/01/10 09:49:25;;;;;;;12.00;6.67;;;-3.20;99.90;;;;;;5086650;28;20224;-59
2024/01/10 09:51:59;;;;;;;16.70;7.07;;;-3.10;99.90;;;;;;5086718;28;20211;-60
2024/01/10 09:54:31;;;;;;;14.93;7.60;;;-2.90;99.90;;;;;;5084117;28;20317;-60
2024/01/10 09:56:59;;;;;;;13.80;7.07;;;-2.80;99.90;;;;;;5080869;28;20231;-60
2024/01/10 09:59:27;;;;;;;15.33;8.00;;;-2.60;99.90;;;;;;5085133;28;20685;-60
2024/01/10 10:01:59;;;;;;;16.20;7.90;;;-2.40;99.90;;;;;;5082525;28;20253;-60
2024/01/10 10:04:30;;;;;;;14.10;7.70;;;-2.20;99.90;;;;;;5086371;28;20225;-60
2024/01/10 10:07:02;;;;;;;14.27;7.37;;;-2.10;99.90;;;;;;5080776;28;20221;-60
2024/01/10 10:09:31;;;;;;;12.43;7.33;;;-1.90;99.90;;;;;;5081690;28;20233;-60
2024/01/10 10:12:00;;;;;;;13.10;7.47;;;-1.50;99.90;;;;;;5087031;28;20213;-60
2024/01/10 10:14:30;;;;;;;15.20;8.00;;;-1.40;99.90;;;;;;5083907;28;20265;-60
2024/01/10 10:17:15;;;;;;;13.03;7.70;;;-1.40;99.90;;;;;;5087073;28;20191;-59
2024/01/10 10:19:46;;;;;;;20.27;7.83;;;-1.40;99.90;;;;;;5084927;28;20546;-59
2024/01/10 10:22:15;;;;;;;11.53;8.37;;;-1.30;99.90;;;;;;5080269;28;20239;-60
2024/01/10 10:24:44;;;;;;;12.33;8.13;;;-1.30;99.90;;;;;;5083979;28;20219;-60
2024/01/10 10:27:14;;;;;;;13.43;8.10;;;-1.30;99.90;;;;;;5082734;28;20239;-61
2024/01/10 10:29:43;;;;;;;14.23;7.67;;;-1.20;99.90;;;;;;5082604;28;20300;-60
2024/01/10 10:32:18;;;;;;;14.00;8.13;;;-1.20;99.90;;;;;;5084333;28;20245;-59
2024/01/10 10:34:49;;;;;;;14.00;7.63;;;-1.10;99.90;;;;;;5083502;28;20191;-60
2024/01/10 10:37:17;;;;;;;17.40;8.40;;;-0.80;99.90;;;;;;5081676;28;20253;-60
2024/01/10 10:39:45;;;;;;;13.63;8.03;;;-0.70;99.90;;;;;;5081598;28;20218;-60
2024/01/10 10:42:15;;;;;;;14.23;8.43;;;-0.60;99.90;;;;;;5084118;28;20246;-60
2024/01/10 10:44:45;;;;;;;18.90;8.20;;;-0.60;99.90;;;;;;5087094;28;20231;-60
2024/01/10 10:47:18;;;;;;;13.60;7.60;;;-0.40;99.90;;;;;;5080314;28;20721;-60
2024/01/10 10:49:54;;;;;;;14.27;8.50;;;-0.50;99.90;;;;;;5085688;28;20184;-60
2024/01/10 10:52:24;;;;;;;11.90;8.10;;;-0.60;99.90;;;;;;5078126;28;20227;-60
2024/01/10 10:54:55;;;;;;;14.33;7.53;;;-0.60;99.90;;;;;;5086603;28;20223;-60
2024/01/10 10:57:25;;;;;;;15.80;8.23;;;-0.30;99.90;;;;;;5082824;28;20234;-60
2024/01/10 10:59:54;;;;;;;15.77;8.07;;;-0.20;99.90;;;;;;5082867;28;20573;-60
2024/01/10 11:02:24;;;;;;;15.77;8.40;;;-0.30;99.90;;;;;;5083031;28;20215;-60
2024/01/10 11:04:59;;;;;;;13.63;8.10;;;-0.50;99.90;;;;;;5081567;28;20230;-59
2024/01/10 11:07:28;;;;;;;16.60;9.10;;;-0.40;99.90;;;;;;5085624;28;20223;-57
2024/01/10 11:09:58;;;;;;;14.23;8.83;;;-0.30;99.90;;;;;;5085844;28;20997;-58
2024/01/10 11:12:45;;;;;;;14.47;8.33;;;-0.10;99.90;;;;;;5082331;28;20231;-57
2024/01/10 11:15:31;;;;;;;14.33;8.30;;;-0.10;99.90;;;;;;5087616;28;20240;-60
2024/01/10 11:18:41;;;;;;;13.40;7.97;;;-0.10;99.90;;;;;;5084929;28;20261;-59
2024/01/10 11:21:25;;;;;;;14.10;8.20;;;-0.10;99.90;;;;;;5084522;28;20698;-59
2024/01/10 11:23:56;;;;;;;15.23;9.17;;;-0.10;99.90;;;;;;5088227;28;20227;-60
2024/01/10 11:26:24;;;;;;;21.57;9.27;;;-0.10;99.90;;;;;;5081181;28;20675;-59
2024/01/10 11:28:53;;;;;;;15.67;9.00;;;0.00;99.90;;;;;;5085776;28;20194;-59
2024/01/10 11:31:29;;;;;;;15.50;8.87;;;0.10;99.90;;;;;;5081413;28;20227;-59
2024/01/10 11:34:03;;;;;;;12.37;8.13;;;0.30;99.90;;;;;;5081260;28;20214;-60
2024/01/10 11:36:35;;;;;;;15.73;8.97;;;0.40;99.90;;;;;;5085675;28;20768;-59
2024/01/10 11:39:06;;;;;;;17.07;8.63;;;0.40;99.90;;;;;;5081501;28;20297;-59
2024/01/10 11:41:35;;;;;;;16.60;8.93;;;0.30;99.90;;;;;;5086189;27;20257;-59
2024/01/10 11:44:29;;;;;;;16.57;8.97;;;0.40;99.90;;;;;;5082555;28;20203;-59
2024/01/10 11:47:00;;;;;;;14.67;9.13;;;0.40;99.90;;;;;;5086141;28;20256;-59
2024/01/10 11:49:31;;;;;;;15.80;8.90;;;0.60;99.90;;;;;;5086877;28;20596;-60
2024/01/10 11:52:01;;;;;;;17.60;8.87;;;0.50;99.90;;;;;;5082675;28;20646;-60
2024/01/10 11:54:36;;;;;;;18.47;9.17;;;0.50;99.90;;;;;;5086803;28;20223;-59
2024/01/10 11:57:09;;;;;;;22.57;9.50;;;0.50;99.90;;;;;;5080776;27;20308;-60
2024/01/10 11:59:42;;;;;;;17.17;9.30;;;0.40;99.90;;;;;;5089376;28;20226;-60
2024/01/10 12:02:11;;;;;;;15.80;8.53;;;0.60;99.90;;;;;;5082320;28;20544;-61
2024/01/10 12:04:39;;;;;;;19.90;9.57;;;0.50;99.90;;;;;;5082521;28;20226;-60
2024/01/10 12:07:17;;;;;;;17.80;9.10;;;0.70;99.90;;;;;;5084597;28;20218;-59
2024/01/10 12:09:47;;;;;;;18.37;9.27;;;0.80;99.90;;;;;;5083865;28;20310;-59
2024/01/10 12:12:16;;;;;;;18.20;9.23;;;0.90;99.90;;;;;;5081278;28;20230;-60
2024/01/10 12:14:44;;;;;;;18.03;9.57;;;0.90;99.90;;;;;;5084654;28;20686;-60
2024/01/10 12:17:13;;;;;;;16.70;9.53;;;0.90;99.90;;;;;;5081770;28;20650;-60
2024/01/10 12:19:44;;;;;;;15.37;8.53;;;0.80;99.90;;;;;;5084258;28;20268;-59
2024/01/10 12:22:17;;;;;;;18.77;9.73;;;0.80;99.90;;;;;;5081815;28;20654;-60
2024/01/10 12:24:48;;;;;;;20.60;10.33;;;0.80;99.90;;;;;;5084347;28;20689;-59
2024/01/10 12:27:19;;;;;;;16.27;9.53;;;0.70;99.90;;;;;;5083442;28;20227;-59
2024/01/10 12:29:50;;;;;;;18.93;9.00;;;0.60;99.90;;;;;;5084219;28;20625;-59
2024/01/10 12:32:19;;;;;;;17.23;9.40;;;0.70;99.90;;;;;;5081063;28;20235;-59
2024/01/10 12:34:48;;;;;;;17.47;9.60;;;0.80;99.90;;;;;;5082148;28;20191;-59
2024/01/10 12:37:20;;;;;;;18.63;9.70;;;0.80;99.90;;;;;;5079256;28;20302;-59
2024/01/10 12:39:48;;;;;;;18.43;9.03;;;0.80;99.90;;;;;;5081590;28;20219;-59
2024/01/10 12:42:17;;;;;;;15.30;9.00;;;0.80;99.90;;;;;;5081063;28;20215;-60
2024/01/10 12:44:46;;;;;;;21.83;10.10;;;0.70;99.90;;;;;;5083906;27;20684;-59
2024/01/10 12:47:20;;;;;;;17.20;10.00;;;0.70;99.90;;;;;;5081475;28;20632;-60
2024/01/10 12:49:49;;;;;;;18.33;9.70;;;0.70;99.90;;;;;;5080227;28;20191;-59
2024/01/10 12:52:21;;;;;;;16.80;9.67;;;0.60;99.90;;;;;;5081226;28;20219;-59